Time;durP1;ratioP1;P1;durP2;ratioP2;P2;SDS_P1;SDS_P2;PMS_P1;PMS_P2;Temp;Humidity;BMP_temperature;BMP_pressure;BME280_temperature;BME280_humidity;BME280_pressure;Samples;Min_cycle;Max_cycle;Signal;HPM_P1;HPM_P2
2022/10/18 00:00:26;;;;;;;58.22;17.25;;;12.90;99.90;;;;;;5053540;28;20056;-79
2022/10/18 00:02:51;;;;;;;33.88;16.52;;;12.80;99.90;;;;;;5036133;28;20033;-79
2022/10/18 00:05:17;;;;;;;32.60;16.13;;;12.80;99.90;;;;;;5052791;28;20175;-79
2022/10/18 00:07:42;;;;;;;27.45;15.77;;;12.80;99.90;;;;;;5053142;28;20029;-79
2022/10/18 00:10:09;;;;;;;28.38;16.15;;;12.80;99.90;;;;;;5053260;28;20056;-79
2022/10/18 00:12:36;;;;;;;105.18;18.92;;;12.80;99.90;;;;;;5052899;28;20037;-79
2022/10/18 00:15:03;;;;;;;23.42;14.30;;;12.70;99.90;;;;;;5052698;28;20091;-79
2022/10/18 00:17:28;;;;;;;53.28;17.52;;;12.80;99.90;;;;;;5052610;28;20043;-79
2022/10/18 00:19:54;;;;;;;41.75;15.60;;;12.70;99.90;;;;;;5052790;28;20036;-79
2022/10/18 00:22:19;;;;;;;30.50;14.73;;;12.70;99.90;;;;;;5052749;28;20406;-80
2022/10/18 00:24:45;;;;;;;29.33;14.77;;;12.70;99.90;;;;;;5052825;28;20154;-79
2022/10/18 00:27:10;;;;;;;22.35;14.40;;;12.60;99.90;;;;;;5052861;28;20083;-79
2022/10/18 00:29:36;;;;;;;24.70;14.07;;;12.70;99.90;;;;;;5053011;28;20098;-80
2022/10/18 00:32:02;;;;;;;30.30;15.38;;;12.60;99.90;;;;;;5052716;28;20560;-80
2022/10/18 00:34:27;;;;;;;29.40;15.70;;;12.60;99.90;;;;;;5053484;28;20040;-79
2022/10/18 00:36:53;;;;;;;21.20;13.88;;;12.60;99.90;;;;;;5036561;28;20029;-79
2022/10/18 00:39:20;;;;;;;23.05;14.63;;;12.60;99.90;;;;;;5053472;28;20071;-79
2022/10/18 00:41:47;;;;;;;25.73;14.82;;;12.60;99.90;;;;;;5053004;28;20686;-79
2022/10/18 00:44:12;;;;;;;29.42;14.93;;;12.60;99.90;;;;;;5036419;28;20051;-79
2022/10/18 00:46:40;;;;;;;21.10;12.93;;;12.50;99.90;;;;;;5053019;28;20137;-79
2022/10/18 00:49:15;;;;;;;21.50;14.10;;;12.50;99.90;;;;;;5052312;28;20041;-79
2022/10/18 00:51:48;;;;;;;17.45;12.75;;;12.50;99.90;;;;;;5052159;28;20037;-79
2022/10/18 00:54:16;;;;;;;21.50;13.20;;;12.50;99.90;;;;;;5052682;28;20044;-79
2022/10/18 00:56:43;;;;;;;22.63;13.80;;;12.50;99.90;;;;;;5052405;28;20052;-79
2022/10/18 00:59:09;;;;;;;20.55;13.90;;;12.50;99.90;;;;;;5052527;28;20037;-79
2022/10/18 01:01:35;;;;;;;22.25;13.52;;;12.40;99.90;;;;;;5052306;28;20124;-79
2022/10/18 01:04:00;;;;;;;29.65;14.30;;;12.40;99.90;;;;;;5035726;28;20091;-79
2022/10/18 01:06:27;;;;;;;33.78;14.05;;;12.40;99.90;;;;;;5052204;28;20029;-80
2022/10/18 01:09:08;;;;;;;23.35;13.73;;;12.40;99.90;;;;;;5052268;28;20043;-79
2022/10/18 01:12:04;;;;;;;20.92;14.25;;;12.40;99.90;;;;;;5051859;28;20454;-80
2022/10/18 01:14:49;;;;;;;17.80;13.18;;;12.40;99.90;;;;;;5051437;28;20098;-79
2022/10/18 01:17:14;;;;;;;;;;;12.30;99.90;;;;;;5052395;28;20528;-79
2022/10/18 01:19:58;;;;;;;39.67;14.55;;;12.30;99.90;;;;;;5051915;28;20003;-80
2022/10/18 01:22:30;;;;;;;40.88;14.10;;;12.30;99.90;;;;;;5051580;28;20491;-81
2022/10/18 01:25:33;;;;;;;50.05;13.88;;;12.30;99.90;;;;;;5051239;28;20072;-80
2022/10/18 01:28:39;;;;;;;48.83;14.95;;;12.30;99.90;;;;;;5051684;28;20044;-80
2022/10/18 01:31:30;;;;;;;69.03;15.27;;;12.30;99.90;;;;;;5018773;28;20052;-80
2022/10/18 01:34:01;;;;;;;26.85;13.18;;;12.30;99.90;;;;;;5034549;28;20448;-80
2022/10/18 01:36:31;;;;;;;38.78;13.43;;;12.30;99.90;;;;;;5051317;28;20052;-80
2022/10/18 01:39:00;;;;;;;94.82;16.30;;;12.30;99.90;;;;;;5051377;28;20029;-80
2022/10/18 01:41:27;;;;;;;37.72;13.65;;;12.30;99.90;;;;;;5051221;28;20037;-80
2022/10/18 01:43:59;;;;;;;40.97;14.27;;;12.30;99.90;;;;;;5051134;28;20036;-80
2022/10/18 01:46:26;;;;;;;23.00;12.73;;;12.30;99.90;;;;;;5051086;28;20048;-80
2022/10/18 01:48:53;;;;;;;30.55;12.88;;;12.30;99.90;;;;;;5050781;28;20055;-80
2022/10/18 01:51:23;;;;;;;75.97;15.52;;;12.30;99.90;;;;;;5050430;28;20041;-80
2022/10/18 01:53:49;;;;;;;72.72;15.32;;;12.30;99.90;;;;;;5050740;28;20041;-79
2022/10/18 01:56:30;;;;;;;33.78;12.95;;;12.40;99.90;;;;;;5041606;28;20048;-80
2022/10/18 01:59:10;;;;;;;274.20;28.63;;;12.30;99.90;;;;;;5046740;28;20111;-79
2022/10/18 02:01:59;;;;;;;50.35;14.10;;;12.30;99.90;;;;;;5050874;28;20037;-80
2022/10/18 02:04:32;;;;;;;36.33;12.65;;;12.40;99.90;;;;;;5050979;28;20125;-80
2022/10/18 02:07:08;;;;;;;144.65;18.73;;;12.40;99.90;;;;;;5050926;28;20029;-80
2022/10/18 02:09:45;;;;;;;96.60;17.13;;;12.40;99.90;;;;;;5050733;28;20044;-80
2022/10/18 02:12:14;;;;;;;67.93;14.38;;;12.40;99.90;;;;;;5050568;28;20045;-80
2022/10/18 02:14:42;;;;;;;205.23;23.33;;;12.40;99.90;;;;;;5050507;28;20091;-80
2022/10/18 02:17:11;;;;;;;209.60;22.98;;;12.50;99.90;;;;;;5050962;28;20090;-80
2022/10/18 02:19:42;;;;;;;129.63;17.48;;;12.50;99.90;;;;;;5034043;28;20041;-80
2022/10/18 02:22:10;;;;;;;215.63;22.15;;;12.50;99.90;;;;;;5033838;28;20495;-80
2022/10/18 02:24:41;;;;;;;68.40;15.75;;;12.50;99.90;;;;;;5049892;28;20051;-79
2022/10/18 02:27:08;;;;;;;109.20;18.08;;;12.50;99.90;;;;;;5033998;28;20033;-80
2022/10/18 02:29:34;;;;;;;83.55;17.17;;;12.60;99.90;;;;;;5033947;28;20045;-79
2022/10/18 02:32:04;;;;;;;269.67;25.10;;;12.60;99.90;;;;;;5050183;28;20123;-80
2022/10/18 02:34:38;;;;;;;200.32;25.52;;;12.60;99.90;;;;;;5050389;28;20103;-80
2022/10/18 02:37:04;;;;;;;174.45;20.00;;;12.60;99.90;;;;;;5050282;28;20037;-80
2022/10/18 02:39:33;;;;;;;349.33;30.75;;;12.60;99.90;;;;;;5050447;28;20095;-80
2022/10/18 02:41:59;;;;;;;217.25;24.45;;;12.60;99.90;;;;;;5049939;28;20106;-79
2022/10/18 02:44:24;;;;;;;109.35;16.90;;;12.60;99.90;;;;;;5050155;28;20041;-80
2022/10/18 02:46:50;;;;;;;22.75;15.23;;;12.60;99.90;;;;;;5033610;28;20120;-80
2022/10/18 02:49:15;;;;;;;380.70;34.55;;;12.70;99.90;;;;;;5033496;28;20033;-79
2022/10/18 02:51:41;;;;;;;311.73;29.98;;;12.60;99.90;;;;;;5049743;28;20041;-79
2022/10/18 02:54:07;;;;;;;374.25;31.98;;;12.60;99.90;;;;;;5049763;28;20045;-79
2022/10/18 02:56:33;;;;;;;382.50;33.67;;;12.60;99.90;;;;;;5050109;28;20202;-80
2022/10/18 02:58:59;;;;;;;323.25;28.15;;;12.60;99.90;;;;;;5049346;28;20115;-80
2022/10/18 03:01:24;;;;;;;211.38;23.50;;;12.60;99.90;;;;;;5020002;28;20140;-80
2022/10/18 03:03:50;;;;;;;202.07;24.73;;;12.60;99.90;;;;;;5050015;28;20048;-80
2022/10/18 03:06:15;;;;;;;83.97;17.52;;;12.60;99.90;;;;;;5049749;28;20080;-79
2022/10/18 03:08:41;;;;;;;69.50;16.67;;;12.60;99.90;;;;;;5049972;28;20033;-80
2022/10/18 03:11:06;;;;;;;44.95;16.20;;;12.60;99.90;;;;;;5049666;28;20049;-79
2022/10/18 03:13:32;;;;;;;42.67;16.05;;;12.60;99.90;;;;;;5049749;28;20037;-79
2022/10/18 03:15:59;;;;;;;93.15;17.60;;;12.60;99.90;;;;;;5049714;28;20235;-80
2022/10/18 03:18:24;;;;;;;241.10;24.83;;;12.60;99.90;;;;;;5033109;28;20049;-79
2022/10/18 03:20:50;;;;;;;263.40;28.00;;;12.60;99.90;;;;;;5049957;28;20048;-79
2022/10/18 03:23:15;;;;;;;281.90;27.27;;;12.60;99.90;;;;;;5049395;28;20036;-79
2022/10/18 03:25:41;;;;;;;206.30;23.70;;;12.50;99.90;;;;;;5049777;28;20192;-80
2022/10/18 03:28:07;;;;;;;94.00;18.02;;;12.50;99.90;;;;;;5049928;28;20086;-79
2022/10/18 03:30:33;;;;;;;89.35;17.05;;;12.50;99.90;;;;;;5049521;28;20041;-79
2022/10/18 03:32:58;;;;;;;28.10;15.90;;;12.50;99.90;;;;;;5049495;28;20059;-79
2022/10/18 03:35:24;;;;;;;136.43;21.63;;;12.60;99.90;;;;;;5049416;28;20099;-80
2022/10/18 03:37:49;;;;;;;94.55;19.42;;;12.50;99.90;;;;;;5052850;28;20068;-79
2022/10/18 03:40:15;;;;;;;209.98;26.50;;;12.50;99.90;;;;;;5054592;28;20449;-79
2022/10/18 03:42:41;;;;;;;52.38;15.90;;;12.50;99.90;;;;;;5053027;28;20037;-80
2022/10/18 03:45:07;;;;;;;34.08;16.30;;;12.50;99.90;;;;;;5053067;28;20066;-80
2022/10/18 03:47:32;;;;;;;28.33;15.43;;;12.50;99.90;;;;;;5053351;28;20064;-80
2022/10/18 03:49:58;;;;;;;85.30;19.48;;;12.50;99.90;;;;;;5053141;28;20032;-79
2022/10/18 03:52:23;;;;;;;61.90;17.30;;;12.50;99.90;;;;;;5052834;28;20107;-79
2022/10/18 03:54:49;;;;;;;40.33;16.17;;;12.50;99.90;;;;;;5052908;28;20037;-79
2022/10/18 03:57:14;;;;;;;24.48;15.55;;;12.50;99.90;;;;;;5042127;28;20581;-79
2022/10/18 03:59:40;;;;;;;76.53;18.88;;;12.50;99.90;;;;;;5052911;28;20060;-80
2022/10/18 04:02:05;;;;;;;106.30;17.88;;;12.40;99.90;;;;;;5052598;28;20080;-79
2022/10/18 04:04:31;;;;;;;27.80;14.85;;;12.40;99.90;;;;;;5052567;28;20175;-79
2022/10/18 04:06:56;;;;;;;73.60;17.60;;;12.40;99.90;;;;;;5053084;28;20165;-79
2022/10/18 04:09:22;;;;;;;32.35;15.75;;;12.40;99.90;;;;;;5036133;28;20045;-79
2022/10/18 04:11:51;;;;;;;178.52;23.27;;;12.40;99.90;;;;;;5052424;28;20040;-79
2022/10/18 04:14:16;;;;;;;87.50;17.63;;;12.40;99.90;;;;;;5035815;28;20041;-79
2022/10/18 04:16:42;;;;;;;86.35;17.27;;;12.40;99.90;;;;;;5052845;28;20036;-79
2022/10/18 04:19:08;;;;;;;52.60;16.15;;;12.40;99.90;;;;;;5052481;28;20037;-79
2022/10/18 04:21:33;;;;;;;124.97;20.40;;;12.40;99.90;;;;;;5052229;28;20061;-79
2022/10/18 04:23:59;;;;;;;109.68;19.80;;;12.40;99.90;;;;;;5052715;28;20036;-79
2022/10/18 04:26:24;;;;;;;63.30;16.15;;;12.40;99.90;;;;;;5052392;28;20045;-79
2022/10/18 04:28:50;;;;;;;66.65;16.60;;;12.30;99.90;;;;;;5052534;28;20091;-79
2022/10/18 04:31:15;;;;;;;80.70;16.90;;;12.30;99.90;;;;;;5052155;28;20037;-79
2022/10/18 04:33:41;;;;;;;73.43;16.83;;;12.30;99.90;;;;;;5052316;28;20037;-79
2022/10/18 04:36:06;;;;;;;41.17;14.23;;;12.30;99.90;;;;;;5052187;28;20037;-79
2022/10/18 04:38:32;;;;;;;103.75;17.65;;;12.30;99.90;;;;;;5052148;28;20391;-79
2022/10/18 04:40:57;;;;;;;60.50;15.15;;;12.30;99.90;;;;;;5051991;28;20029;-80
2022/10/18 04:43:23;;;;;;;94.85;16.33;;;12.20;99.90;;;;;;5035423;28;20506;-79
2022/10/18 04:45:50;;;;;;;164.25;18.65;;;12.20;99.90;;;;;;5051970;28;20121;-79
2022/10/18 04:48:16;;;;;;;166.32;20.55;;;12.20;99.90;;;;;;5050890;28;20044;-79
2022/10/18 04:50:41;;;;;;;76.78;14.48;;;12.20;99.90;;;;;;5052038;28;20469;-79
2022/10/18 04:53:07;;;;;;;136.25;17.10;;;12.20;99.90;;;;;;5051991;28;20088;-79
2022/10/18 04:55:32;;;;;;;82.07;15.20;;;12.20;99.90;;;;;;5035094;28;20073;-79
2022/10/18 04:57:58;;;;;;;52.75;13.93;;;12.10;99.90;;;;;;5051856;28;20524;-79
2022/10/18 05:00:23;;;;;;;154.70;17.65;;;12.10;99.90;;;;;;5035165;28;20037;-79
2022/10/18 05:02:49;;;;;;;34.40;12.93;;;12.10;99.90;;;;;;5051318;28;20040;-79
2022/10/18 05:05:14;;;;;;;43.45;13.70;;;12.00;99.90;;;;;;5051582;28;20037;-79
2022/10/18 05:07:40;;;;;;;18.10;11.30;;;12.00;99.90;;;;;;5035124;28;20410;-79
2022/10/18 05:10:06;;;;;;;40.25;13.40;;;12.00;99.90;;;;;;5051488;28;20045;-80
2022/10/18 05:12:31;;;;;;;27.70;11.95;;;12.00;99.90;;;;;;5051367;28;20044;-79
2022/10/18 05:14:57;;;;;;;27.88;11.50;;;12.00;99.90;;;;;;5051271;28;20045;-79
2022/10/18 05:17:22;;;;;;;39.20;12.75;;;11.90;99.90;;;;;;5034847;28;20120;-79
2022/10/18 05:19:48;;;;;;;41.65;12.18;;;12.00;99.90;;;;;;5052920;28;20112;-79
2022/10/18 05:22:13;;;;;;;18.25;11.68;;;11.90;99.90;;;;;;5051413;28;20166;-80
2022/10/18 05:24:39;;;;;;;118.80;16.10;;;11.90;99.90;;;;;;5039364;28;20068;-79
2022/10/18 05:27:04;;;;;;;80.05;13.50;;;11.90;99.90;;;;;;5050523;28;20049;-79
2022/10/18 05:29:30;;;;;;;75.18;14.07;;;11.90;99.90;;;;;;5051226;28;20037;-79
2022/10/18 05:31:55;;;;;;;39.33;12.02;;;11.80;99.90;;;;;;5052129;28;20123;-79
2022/10/18 05:34:21;;;;;;;39.75;12.02;;;11.80;99.90;;;;;;5051246;28;20032;-79
2022/10/18 05:36:48;;;;;;;166.88;18.00;;;11.80;99.90;;;;;;5051222;28;20116;-79
2022/10/18 05:39:14;;;;;;;21.77;10.27;;;11.80;99.90;;;;;;5051012;28;20041;-79
2022/10/18 05:41:40;;;;;;;20.58;10.70;;;11.70;99.90;;;;;;5050809;28;20040;-79
2022/10/18 05:44:05;;;;;;;22.50;10.13;;;11.70;99.90;;;;;;5050796;28;20029;-80
2022/10/18 05:46:31;;;;;;;38.05;11.50;;;11.70;99.90;;;;;;5051039;28;20564;-79
2022/10/18 05:48:57;;;;;;;180.93;18.17;;;11.70;99.90;;;;;;5050774;28;20048;-79
2022/10/18 05:51:22;;;;;;;23.25;10.20;;;11.70;99.90;;;;;;5050500;28;20052;-79
2022/10/18 05:53:48;;;;;;;26.73;9.48;;;11.60;99.90;;;;;;5051011;28;20116;-79
2022/10/18 05:56:13;;;;;;;48.35;11.52;;;11.60;99.90;;;;;;5050629;28;20049;-80
2022/10/18 05:58:40;;;;;;;66.28;12.05;;;11.50;99.90;;;;;;5048328;28;20037;-79
2022/10/18 06:01:06;;;;;;;52.42;10.45;;;11.50;99.90;;;;;;5050253;28;20525;-80
2022/10/18 06:03:33;;;;;;;47.13;10.02;;;11.50;99.90;;;;;;5036674;28;20086;-79
2022/10/18 06:06:04;;;;;;;79.20;12.02;;;11.40;99.90;;;;;;5050632;28;20049;-79
2022/10/18 06:08:30;;;;;;;50.50;11.02;;;11.40;99.90;;;;;;5051995;28;20402;-79
2022/10/18 06:10:55;;;;;;;67.45;10.90;;;11.30;99.90;;;;;;5050627;28;20041;-80
2022/10/18 06:13:21;;;;;;;66.88;11.82;;;11.30;99.90;;;;;;5050229;28;20036;-79
2022/10/18 06:15:46;;;;;;;42.13;10.35;;;11.20;99.90;;;;;;5050310;28;20051;-79
2022/10/18 06:18:12;;;;;;;139.98;14.98;;;11.20;99.90;;;;;;5050509;28;20043;-79
2022/10/18 06:20:37;;;;;;;78.10;11.60;;;11.20;99.90;;;;;;5051124;28;20402;-78
2022/10/18 06:23:03;;;;;;;21.08;9.02;;;11.10;99.90;;;;;;5050578;28;20041;-79
2022/10/18 06:25:28;;;;;;;44.38;10.07;;;11.10;99.90;;;;;;5050793;28;20040;-79
2022/10/18 06:27:54;;;;;;;61.30;9.55;;;11.10;99.90;;;;;;5051024;28;20041;-79
2022/10/18 06:30:19;;;;;;;19.92;7.80;;;11.10;99.90;;;;;;5050568;28;20528;-80
2022/10/18 06:32:45;;;;;;;78.25;10.18;;;11.00;99.90;;;;;;5051394;28;20098;-79
2022/10/18 06:35:10;;;;;;;43.33;8.20;;;11.10;99.90;;;;;;5033665;28;20095;-79
2022/10/18 06:37:37;;;;;;;95.75;10.52;;;11.10;99.90;;;;;;5050524;28;20025;-79
2022/10/18 06:40:03;;;;;;;71.40;11.38;;;11.10;99.90;;;;;;5050205;28;20095;-79
2022/10/18 06:42:30;;;;;;;89.20;10.38;;;11.10;99.90;;;;;;5049774;28;20040;-80
2022/10/18 06:44:56;;;;;;;154.38;12.55;;;11.10;99.90;;;;;;5050317;28;20063;-79
2022/10/18 06:47:21;;;;;;;39.13;8.60;;;11.00;99.90;;;;;;5050147;28;20045;-79
2022/10/18 06:49:47;;;;;;;34.15;7.60;;;11.00;99.90;;;;;;5050105;28;20047;-79
2022/10/18 06:52:12;;;;;;;44.13;8.52;;;11.00;99.90;;;;;;5033531;28;20116;-79
2022/10/18 06:54:38;;;;;;;108.43;10.55;;;10.90;99.90;;;;;;5050138;28;20140;-79
2022/10/18 06:57:03;;;;;;;87.63;11.90;;;11.00;99.90;;;;;;5050442;28;20124;-79
2022/10/18 06:59:29;;;;;;;61.38;8.20;;;10.90;99.90;;;;;;5049947;28;20039;-79
2022/10/18 07:01:54;;;;;;;53.83;8.68;;;10.90;99.90;;;;;;5033145;28;20031;-79
2022/10/18 07:04:20;;;;;;;49.65;8.02;;;11.00;99.90;;;;;;5050390;28;20037;-79
2022/10/18 07:06:45;;;;;;;127.38;10.15;;;11.00;99.90;;;;;;5050312;28;20041;-79
2022/10/18 07:09:11;;;;;;;118.53;10.35;;;11.00;99.90;;;;;;5050462;28;20537;-80
2022/10/18 07:11:36;;;;;;;104.93;8.88;;;11.00;99.90;;;;;;5034235;28;20044;-79
2022/10/18 07:14:03;;;;;;;54.97;7.10;;;11.00;99.90;;;;;;5053665;28;20033;-79
2022/10/18 07:16:30;;;;;;;72.85;8.05;;;11.00;99.90;;;;;;5053705;28;20681;-79
2022/10/18 07:18:56;;;;;;;36.25;7.57;;;11.10;99.90;;;;;;5053767;28;20037;-79
2022/10/18 07:21:24;;;;;;;43.28;7.43;;;11.00;99.90;;;;;;5053498;28;20044;-79
2022/10/18 07:23:50;;;;;;;32.15;7.50;;;11.10;99.90;;;;;;5053799;28;20037;-79
2022/10/18 07:26:18;;;;;;;30.92;7.32;;;11.10;99.90;;;;;;5053861;28;20068;-80
2022/10/18 07:28:47;;;;;;;14.45;6.45;;;11.10;99.90;;;;;;5053301;28;20044;-80
2022/10/18 07:31:13;;;;;;;24.00;6.90;;;11.10;99.90;;;;;;5053500;28;20044;-80
2022/10/18 07:33:39;;;;;;;16.75;6.70;;;11.20;99.90;;;;;;5053264;28;20048;-80
2022/10/18 07:36:07;;;;;;;10.40;6.43;;;11.20;99.90;;;;;;5053514;28;20073;-80
2022/10/18 07:38:33;;;;;;;19.77;6.25;;;11.20;99.90;;;;;;5036640;28;20041;-79
2022/10/18 07:41:00;;;;;;;13.23;6.43;;;11.30;99.90;;;;;;5053064;28;20060;-79
2022/10/18 07:43:27;;;;;;;16.83;6.90;;;11.30;99.90;;;;;;5053397;28;20485;-81
2022/10/18 07:45:58;;;;;;;11.77;6.93;;;11.40;99.90;;;;;;5053141;28;20120;-80
2022/10/18 07:48:24;;;;;;;10.20;6.80;;;11.40;99.90;;;;;;5053167;28;20048;-79
2022/10/18 07:50:50;;;;;;;8.10;6.70;;;11.50;99.90;;;;;;5036598;28;20045;-79
2022/10/18 07:53:15;;;;;;;9.30;7.07;;;11.60;99.90;;;;;;5052919;28;20041;-79
2022/10/18 07:55:42;;;;;;;8.70;6.85;;;11.70;99.90;;;;;;5052803;28;20560;-79
2022/10/18 07:58:07;;;;;;;13.52;7.30;;;11.80;99.90;;;;;;5048353;28;20073;-79
2022/10/18 08:00:33;;;;;;;10.88;7.05;;;11.80;99.90;;;;;;5047874;28;20075;-79
2022/10/18 08:02:59;;;;;;;10.93;6.60;;;11.90;99.90;;;;;;5035968;28;20029;-79
2022/10/18 08:05:25;;;;;;;8.93;6.30;;;12.00;99.90;;;;;;5052839;28;20652;-79
2022/10/18 08:07:52;;;;;;;9.05;6.47;;;12.10;99.90;;;;;;5052856;28;20045;-79
2022/10/18 08:10:18;;;;;;;12.57;6.70;;;12.10;99.90;;;;;;5052538;28;20037;-80
2022/10/18 08:12:44;;;;;;;8.55;5.80;;;12.20;99.90;;;;;;5052446;28;20044;-79
2022/10/18 08:15:10;;;;;;;12.30;6.50;;;12.30;99.90;;;;;;5052601;28;20446;-79
2022/10/18 08:17:36;;;;;;;9.38;6.18;;;12.40;99.90;;;;;;5052983;28;20037;-80
2022/10/18 08:20:01;;;;;;;10.50;5.68;;;12.40;99.90;;;;;;5052509;28;20087;-79
2022/10/18 08:22:27;;;;;;;13.43;5.50;;;12.50;99.90;;;;;;5052231;28;20033;-79
2022/10/18 08:24:52;;;;;;;11.30;5.45;;;12.50;99.90;;;;;;5052686;28;20512;-79
2022/10/18 08:27:18;;;;;;;12.20;5.47;;;12.60;99.90;;;;;;5052346;28;20037;-79
2022/10/18 08:29:43;;;;;;;9.75;5.65;;;12.70;99.90;;;;;;5052604;28;20515;-79
2022/10/18 08:32:09;;;;;;;13.75;5.50;;;12.70;99.90;;;;;;5052208;28;20041;-78
2022/10/18 08:34:34;;;;;;;9.18;4.95;;;12.70;99.90;;;;;;5052354;28;20048;-79
2022/10/18 08:37:01;;;;;;;10.77;5.07;;;12.80;99.90;;;;;;5052385;28;20040;-79
2022/10/18 08:39:26;;;;;;;8.57;4.97;;;12.80;99.90;;;;;;5052400;28;20502;-80
2022/10/18 08:42:14;;;;;;;11.60;5.35;;;12.80;99.90;;;;;;5052307;28;20091;-79
2022/10/18 08:44:44;;;;;;;13.32;4.97;;;12.80;99.90;;;;;;5053100;28;20045;-79
2022/10/18 08:47:35;;;;;;;13.98;5.15;;;12.90;99.90;;;;;;5052513;28;20045;-79
2022/10/18 08:50:13;;;;;;;11.85;5.10;;;12.90;99.90;;;;;;5052324;28;20044;-79
2022/10/18 08:52:54;;;;;;;12.68;5.60;;;12.90;99.90;;;;;;5052302;28;20123;-79
2022/10/18 08:55:51;;;;;;;10.45;5.68;;;13.00;99.90;;;;;;5052217;28;20037;-79
2022/10/18 08:58:25;;;;;;;11.80;5.32;;;13.00;99.90;;;;;;5052126;28;20047;-79
2022/10/18 09:01:17;;;;;;;10.52;5.20;;;13.00;99.90;;;;;;5035225;28;20490;-79
2022/10/18 09:04:16;;;;;;;13.52;5.32;;;13.10;99.90;;;;;;5039313;28;20624;-80
2022/10/18 09:07:16;;;;;;;11.02;4.93;;;13.10;99.90;;;;;;5051583;28;20033;-79
2022/10/18 09:10:22;;;;;;;13.73;5.40;;;13.20;99.90;;;;;;5035142;28;20075;-79
2022/10/18 09:12:56;;;;;;;15.35;5.55;;;13.30;99.90;;;;;;5023210;28;20503;-79
2022/10/18 09:15:34;;;;;;;;;;;13.40;99.90;;;;;;5051838;28;20052;-79
2022/10/18 09:18:27;;;;;;;10.10;4.72;;;13.40;99.90;;;;;;5034868;28;19920;-79
2022/10/18 09:21:04;;;;;;;12.52;4.90;;;13.50;99.90;;;;;;5051346;28;20043;-79
2022/10/18 09:23:49;;;;;;;7.90;4.57;;;13.50;99.90;;;;;;5034519;28;20044;-79
2022/10/18 09:26:20;;;;;;;13.40;4.85;;;13.60;99.90;;;;;;5051664;28;20450;-79
2022/10/18 09:28:55;;;;;;;16.67;4.45;;;13.70;99.90;;;;;;5034824;28;20048;-79
2022/10/18 09:31:29;;;;;;;11.27;3.90;;;13.70;99.90;;;;;;5051300;28;20044;-78
2022/10/18 09:34:12;;;;;;;12.00;4.40;;;13.80;99.90;;;;;;5050496;28;20033;-79
2022/10/18 09:36:38;;;;;;;14.52;4.10;;;13.90;99.90;;;;;;5051015;28;20561;-79
2022/10/18 09:39:13;;;;;;;9.55;3.85;;;13.90;99.90;;;;;;5051192;28;20041;-79
2022/10/18 09:41:53;;;;;;;14.75;3.75;;;14.00;99.90;;;;;;5051112;28;20045;-79
2022/10/18 09:44:23;;;;;;;13.88;3.10;;;14.10;99.90;;;;;;5050829;28;20047;-79
2022/10/18 09:47:04;;;;;;;10.90;3.72;;;14.10;99.90;;;;;;5050978;28;20045;-79
2022/10/18 09:49:40;;;;;;;10.90;3.33;;;14.20;99.90;;;;;;5051175;28;20490;-79
2022/10/18 09:52:17;;;;;;;12.77;3.42;;;14.30;99.90;;;;;;5050601;28;20037;-79
2022/10/18 09:54:50;;;;;;;14.85;3.60;;;14.40;99.90;;;;;;5050649;28;20041;-78
2022/10/18 09:57:26;;;;;;;14.80;3.05;;;14.40;99.90;;;;;;5050743;28;20041;-79
2022/10/18 09:59:52;;;;;;;12.00;3.08;;;14.50;99.90;;;;;;5046781;28;20086;-79
2022/10/18 10:02:22;;;;;;;11.00;3.00;;;14.50;99.90;;;;;;5050787;28;20037;-80
2022/10/18 10:04:48;;;;;;;12.55;2.70;;;14.50;99.90;;;;;;5051110;28;20048;-80
2022/10/18 10:07:20;;;;;;;11.48;3.10;;;14.60;99.90;;;;;;5051036;28;20044;-79
2022/10/18 10:09:54;;;;;;;11.13;2.80;;;14.70;99.90;;;;;;5050897;28;20041;-81
2022/10/18 10:12:26;;;;;;;15.35;2.75;;;14.70;99.90;;;;;;5050830;28;20041;-79
2022/10/18 10:14:52;;;;;;;10.55;1.83;;;14.80;99.90;;;;;;5050679;28;20506;-80
2022/10/18 10:17:25;;;;;;;12.75;2.20;;;14.80;99.90;;;;;;5050995;28;20044;-80
2022/10/18 10:19:59;;;;;;;16.23;2.05;;;14.80;99.90;;;;;;5034700;28;20379;-79
2022/10/18 10:22:45;;;;;;;9.60;2.08;;;14.80;99.90;;;;;;5050744;28;20546;-80
2022/10/18 10:25:29;;;;;;;13.68;2.08;;;14.80;99.90;;;;;;5050812;28;20060;-80
2022/10/18 10:28:00;;;;;;;8.73;2.15;;;14.90;99.90;;;;;;5050886;28;20041;-80
2022/10/18 10:30:36;;;;;;;12.40;2.17;;;15.00;99.90;;;;;;5034533;28;20037;-80
2022/10/18 10:33:02;;;;;;;9.43;1.52;;;15.00;99.90;;;;;;5051195;28;20052;-80
2022/10/18 10:35:35;;;;;;;11.77;2.15;;;15.10;99.90;;;;;;5034225;28;20161;-80
2022/10/18 10:38:01;;;;;;;11.70;1.95;;;15.10;99.90;;;;;;5051016;28;20087;-79
2022/10/18 10:40:36;;;;;;;11.60;1.98;;;15.20;99.90;;;;;;5051842;28;20124;-80
2022/10/18 10:43:06;;;;;;;13.57;1.85;;;15.30;99.90;;;;;;5034751;28;20426;-80
2022/10/18 10:45:35;;;;;;;11.68;1.95;;;15.30;99.90;;;;;;5050856;28;20111;-79
2022/10/18 10:48:07;;;;;;;14.93;2.13;;;15.50;99.90;;;;;;5055532;28;20454;-83
2022/10/18 10:50:49;;;;;;;10.52;2.30;;;15.60;99.90;;;;;;5038628;28;20510;-82
2022/10/18 10:53:29;;;;;;;9.80;1.70;;;15.60;99.90;;;;;;5054920;28;20689;-80
2022/10/18 10:55:57;;;;;;;7.68;1.60;;;15.50;99.90;;;;;;5053832;28;20037;-82
2022/10/18 10:58:23;;;;;;;9.30;2.13;;;15.30;99.90;;;;;;5045116;28;20102;-80
2022/10/18 11:00:49;;;;;;;11.75;2.40;;;15.10;99.90;;;;;;5055090;28;20061;-81
2022/10/18 11:03:17;;;;;;;7.50;1.52;;;15.00;99.90;;;;;;5057067;28;20072;-80
2022/10/18 11:05:45;;;;;;;13.73;2.20;;;14.90;99.90;;;;;;5055749;28;20136;-80
2022/10/18 11:08:17;;;;;;;8.95;1.90;;;14.90;99.90;;;;;;5056822;28;20072;-80
2022/10/18 11:10:52;;;;;;;13.32;1.90;;;15.00;99.90;;;;;;5056550;28;20037;-80
2022/10/18 11:13:48;;;;;;;9.13;1.75;;;15.20;99.90;;;;;;5038769;28;20052;-81
2022/10/18 11:16:31;;;;;;;12.23;1.92;;;15.50;99.90;;;;;;5055158;28;20048;-80
2022/10/18 11:18:58;;;;;;;17.55;2.95;;;15.80;99.90;;;;;;5055458;28;20025;-80
2022/10/18 11:21:30;;;;;;;9.68;1.90;;;16.00;99.90;;;;;;5054991;28;20422;-80
2022/10/18 11:23:56;;;;;;;16.08;1.95;;;16.10;99.90;;;;;;5056255;28;20041;-82
2022/10/18 11:26:39;;;;;;;14.52;1.83;;;16.20;99.90;;;;;;5054657;28;20051;-80
2022/10/18 11:29:26;;;;;;;7.63;1.30;;;16.30;99.90;;;;;;5054476;28;20056;-82
2022/10/18 11:32:10;;;;;;;12.27;1.58;;;16.30;99.90;;;;;;5053941;28;20041;-83
2022/10/18 11:34:47;;;;;;;8.68;1.73;;;16.20;99.90;;;;;;5044597;28;20565;-81
2022/10/18 11:37:28;;;;;;;7.30;1.40;;;15.90;99.90;;;;;;5051986;28;20036;-78
2022/10/18 11:40:08;;;;;;;7.35;1.48;;;15.70;99.90;;;;;;5054790;28;20044;-80
2022/10/18 11:42:53;;;;;;;11.45;1.60;;;15.60;99.90;;;;;;5054100;28;20065;-79
2022/10/18 11:45:34;;;;;;;6.95;1.25;;;15.40;99.90;;;;;;5054293;28;20107;-79
2022/10/18 11:48:29;;;;;;;8.75;1.25;;;15.30;99.90;;;;;;5054404;28;20045;-81
2022/10/18 11:51:32;;;;;;;7.07;1.40;;;15.30;99.90;;;;;;5037922;28;20058;-80
2022/10/18 11:54:27;;;;;;;13.02;1.75;;;15.20;99.90;;;;;;5054010;28;20044;-80
2022/10/18 11:57:18;;;;;;;9.95;1.60;;;15.40;99.90;;;;;;5053507;28;20041;-81
2022/10/18 12:00:16;;;;;;;10.13;1.52;;;15.80;99.90;;;;;;5051082;28;20409;-83
2022/10/18 12:03:14;;;;;;;8.43;1.52;;;16.00;99.90;;;;;;5053773;28;20498;-81
2022/10/18 12:05:43;;;;;;;9.60;1.83;;;16.10;99.90;;;;;;5023669;28;20061;-80
2022/10/18 12:08:32;;;;;;;13.90;2.15;;;16.20;99.90;;;;;;5033034;28;20045;-80
2022/10/18 12:11:05;;;;;;;10.95;1.83;;;16.00;99.90;;;;;;5037387;28;20041;-79
2022/10/18 12:13:48;;;;;;;10.80;1.90;;;15.80;99.90;;;;;;5054177;28;20402;-80
2022/10/18 12:16:15;;;;;;;15.18;1.70;;;15.60;99.90;;;;;;5053327;28;20051;-81
2022/10/18 12:18:56;;;;;;;11.70;1.88;;;15.70;99.90;;;;;;5053686;28;20033;-81
2022/10/18 12:21:24;;;;;;;10.10;1.65;;;15.90;99.90;;;;;;5041311;28;20037;-81
2022/10/18 12:24:01;;;;;;;8.30;1.80;;;16.00;99.90;;;;;;5053053;28;20041;-83
2022/10/18 12:26:28;;;;;;;11.60;1.70;;;16.10;99.90;;;;;;5037338;28;20036;-81
2022/10/18 12:29:19;;;;;;;8.55;1.50;;;16.20;99.90;;;;;;5053683;28;20052;-81
2022/10/18 12:32:06;;;;;;;8.27;1.52;;;16.40;99.90;;;;;;5036893;28;20048;-80
2022/10/18 12:34:43;;;;;;;6.82;1.73;;;16.50;99.90;;;;;;5037782;28;20498;-80
2022/10/18 12:37:35;;;;;;;12.35;1.70;;;16.50;99.90;;;;;;5055767;28;20410;-81
2022/10/18 12:40:09;;;;;;;7.78;1.60;;;16.50;99.90;;;;;;5055808;28;20037;-79
2022/10/18 12:42:44;;;;;;;8.40;2.00;;;16.50;99.90;;;;;;5038996;28;20449;-81
2022/10/18 12:45:12;;;;;;;8.88;1.60;;;16.70;99.90;;;;;;5055387;28;20521;-80
2022/10/18 12:47:39;;;;;;;9.52;1.90;;;16.60;99.90;;;;;;5053516;28;20591;-81
2022/10/18 12:50:25;;;;;;;7.50;1.40;;;16.50;99.90;;;;;;5036840;28;20045;-81